sensor_id;sensor_type;location;lat;lon;timestamp;P1;durP1;ratioP1;P2;durP2;ratioP2
48122;SDS011;33907;47.426;18.906;2023-07-13T00:02:19;10.52;;;3.35;;
48122;SDS011;33907;47.426;18.906;2023-07-13T00:04:48;12.77;;;4.00;;
48122;SDS011;33907;47.426;18.906;2023-07-13T00:07:16;6.57;;;3.33;;
48122;SDS011;33907;47.426;18.906;2023-07-13T00:09:47;9.40;;;3.45;;
48122;SDS011;33907;47.426;18.906;2023-07-13T00:12:22;9.00;;;3.33;;
48122;SDS011;33907;47.426;18.906;2023-07-13T00:14:57;8.82;;;2.80;;
48122;SDS011;33907;47.426;18.906;2023-07-13T00:17:27;6.40;;;2.67;;
48122;SDS011;33907;47.426;18.906;2023-07-13T00:19:55;7.30;;;2.55;;
48122;SDS011;33907;47.426;18.906;2023-07-13T00:22:24;6.90;;;2.58;;
48122;SDS011;33907;47.426;18.906;2023-07-13T00:24:53;10.15;;;2.55;;
48122;SDS011;33907;47.426;18.906;2023-07-13T00:27:23;6.65;;;2.25;;
48122;SDS011;33907;47.426;18.906;2023-07-13T00:29:54;6.78;;;2.10;;
48122;SDS011;33907;47.426;18.906;2023-07-13T00:32:21;5.85;;;2.30;;
48122;SDS011;33907;47.426;18.906;2023-07-13T00:34:49;4.78;;;2.05;;
48122;SDS011;33907;47.426;18.906;2023-07-13T00:37:18;6.53;;;1.90;;
48122;SDS011;33907;47.426;18.906;2023-07-13T00:39:45;7.18;;;2.10;;
48122;SDS011;33907;47.426;18.906;2023-07-13T00:42:12;6.20;;;2.10;;
48122;SDS011;33907;47.426;18.906;2023-07-13T00:44:40;5.93;;;2.20;;
48122;SDS011;33907;47.426;18.906;2023-07-13T00:47:08;5.28;;;2.08;;
48122;SDS011;33907;47.426;18.906;2023-07-13T00:49:35;5.35;;;1.95;;
48122;SDS011;33907;47.426;18.906;2023-07-13T00:52:07;5.65;;;1.70;;
48122;SDS011;33907;47.426;18.906;2023-07-13T00:54:39;8.93;;;1.90;;
48122;SDS011;33907;47.426;18.906;2023-07-13T00:57:11;6.40;;;1.87;;
48122;SDS011;33907;47.426;18.906;2023-07-13T00:59:42;4.45;;;1.67;;
48122;SDS011;33907;47.426;18.906;2023-07-13T01:02:11;12.50;;;1.90;;
48122;SDS011;33907;47.426;18.906;2023-07-13T01:04:39;4.97;;;1.73;;
48122;SDS011;33907;47.426;18.906;2023-07-13T01:07:06;6.93;;;1.75;;
48122;SDS011;33907;47.426;18.906;2023-07-13T01:09:34;5.60;;;1.65;;
48122;SDS011;33907;47.426;18.906;2023-07-13T01:12:01;3.92;;;1.48;;
48122;SDS011;33907;47.426;18.906;2023-07-13T01:14:30;4.62;;;1.30;;
48122;SDS011;33907;47.426;18.906;2023-07-13T01:16:58;4.80;;;2.28;;
48122;SDS011;33907;47.426;18.906;2023-07-13T01:19:35;6.40;;;1.73;;
48122;SDS011;33907;47.426;18.906;2023-07-13T01:22:14;3.75;;;1.33;;
48122;SDS011;33907;47.426;18.906;2023-07-13T01:24:44;3.62;;;1.45;;
48122;SDS011;33907;47.426;18.906;2023-07-13T01:27:16;5.22;;;1.25;;
48122;SDS011;33907;47.426;18.906;2023-07-13T01:29:46;4.18;;;1.00;;
48122;SDS011;33907;47.426;18.906;2023-07-13T01:32:16;4.18;;;1.27;;
48122;SDS011;33907;47.426;18.906;2023-07-13T01:34:50;3.92;;;1.10;;
48122;SDS011;33907;47.426;18.906;2023-07-13T01:37:22;6.72;;;1.25;;
48122;SDS011;33907;47.426;18.906;2023-07-13T01:39:51;2.22;;;0.90;;
48122;SDS011;33907;47.426;18.906;2023-07-13T01:42:18;3.70;;;0.93;;
48122;SDS011;33907;47.426;18.906;2023-07-13T01:44:48;2.78;;;1.10;;
48122;SDS011;33907;47.426;18.906;2023-07-13T01:47:15;4.22;;;1.08;;
48122;SDS011;33907;47.426;18.906;2023-07-13T01:49:43;5.37;;;1.12;;
48122;SDS011;33907;47.426;18.906;2023-07-13T01:52:13;3.25;;;1.12;;
48122;SDS011;33907;47.426;18.906;2023-07-13T01:54:41;4.22;;;1.10;;
48122;SDS011;33907;47.426;18.906;2023-07-13T01:57:08;4.93;;;1.75;;
48122;SDS011;33907;47.426;18.906;2023-07-13T01:59:36;4.60;;;2.00;;
48122;SDS011;33907;47.426;18.906;2023-07-13T02:02:05;3.97;;;1.58;;
48122;SDS011;33907;47.426;18.906;2023-07-13T02:04:33;6.20;;;1.70;;
48122;SDS011;33907;47.426;18.906;2023-07-13T02:07:01;5.22;;;2.03;;
48122;SDS011;33907;47.426;18.906;2023-07-13T02:09:29;6.72;;;1.50;;
48122;SDS011;33907;47.426;18.906;2023-07-13T02:11:57;7.03;;;2.15;;
48122;SDS011;33907;47.426;18.906;2023-07-13T02:14:30;5.85;;;1.70;;
48122;SDS011;33907;47.426;18.906;2023-07-13T02:16:57;7.78;;;2.10;;
48122;SDS011;33907;47.426;18.906;2023-07-13T02:19:25;8.35;;;2.22;;
48122;SDS011;33907;47.426;18.906;2023-07-13T02:21:52;6.80;;;2.17;;
48122;SDS011;33907;47.426;18.906;2023-07-13T02:24:21;5.87;;;1.83;;
48122;SDS011;33907;47.426;18.906;2023-07-13T02:26:49;8.18;;;2.20;;
48122;SDS011;33907;47.426;18.906;2023-07-13T02:29:16;5.20;;;2.22;;
48122;SDS011;33907;47.426;18.906;2023-07-13T02:31:45;5.70;;;1.90;;
48122;SDS011;33907;47.426;18.906;2023-07-13T02:34:12;6.18;;;2.08;;
48122;SDS011;33907;47.426;18.906;2023-07-13T02:36:40;5.28;;;2.15;;
48122;SDS011;33907;47.426;18.906;2023-07-13T02:39:08;5.12;;;2.00;;
48122;SDS011;33907;47.426;18.906;2023-07-13T02:41:36;4.82;;;1.95;;
48122;SDS011;33907;47.426;18.906;2023-07-13T02:44:03;5.30;;;2.10;;
48122;SDS011;33907;47.426;18.906;2023-07-13T02:46:35;5.60;;;1.83;;
48122;SDS011;33907;47.426;18.906;2023-07-13T02:49:04;5.80;;;1.98;;
48122;SDS011;33907;47.426;18.906;2023-07-13T02:51:31;5.37;;;2.10;;
48122;SDS011;33907;47.426;18.906;2023-07-13T02:54:01;8.55;;;2.83;;
48122;SDS011;33907;47.426;18.906;2023-07-13T02:56:31;6.50;;;2.40;;
48122;SDS011;33907;47.426;18.906;2023-07-13T02:58:59;5.68;;;2.08;;
48122;SDS011;33907;47.426;18.906;2023-07-13T03:01:26;7.00;;;2.35;;
48122;SDS011;33907;47.426;18.906;2023-07-13T03:03:55;6.45;;;2.40;;
48122;SDS011;33907;47.426;18.906;2023-07-13T03:06:23;5.30;;;2.40;;
48122;SDS011;33907;47.426;18.906;2023-07-13T03:08:52;6.82;;;2.25;;
48122;SDS011;33907;47.426;18.906;2023-07-13T03:11:20;6.80;;;2.45;;
48122;SDS011;33907;47.426;18.906;2023-07-13T03:13:49;6.32;;;3.03;;
48122;SDS011;33907;47.426;18.906;2023-07-13T03:16:16;9.25;;;2.60;;
48122;SDS011;33907;47.426;18.906;2023-07-13T03:18:46;7.15;;;2.20;;
48122;SDS011;33907;47.426;18.906;2023-07-13T03:21:15;5.75;;;2.33;;
48122;SDS011;33907;47.426;18.906;2023-07-13T03:23:42;7.72;;;2.20;;
48122;SDS011;33907;47.426;18.906;2023-07-13T03:26:11;7.90;;;2.40;;
48122;SDS011;33907;47.426;18.906;2023-07-13T03:28:44;4.80;;;2.47;;
48122;SDS011;33907;47.426;18.906;2023-07-13T03:31:14;8.27;;;4.25;;
48122;SDS011;33907;47.426;18.906;2023-07-13T03:33:43;6.87;;;2.65;;
48122;SDS011;33907;47.426;18.906;2023-07-13T03:36:13;5.97;;;2.53;;
48122;SDS011;33907;47.426;18.906;2023-07-13T03:38:43;9.13;;;3.05;;
48122;SDS011;33907;47.426;18.906;2023-07-13T03:41:11;6.75;;;2.62;;
48122;SDS011;33907;47.426;18.906;2023-07-13T03:43:38;5.28;;;2.30;;
48122;SDS011;33907;47.426;18.906;2023-07-13T03:46:06;5.35;;;2.53;;
48122;SDS011;33907;47.426;18.906;2023-07-13T03:48:34;6.18;;;2.45;;
48122;SDS011;33907;47.426;18.906;2023-07-13T03:51:01;7.43;;;2.50;;
48122;SDS011;33907;47.426;18.906;2023-07-13T03:53:30;7.28;;;2.90;;
48122;SDS011;33907;47.426;18.906;2023-07-13T03:55:58;7.72;;;2.50;;
48122;SDS011;33907;47.426;18.906;2023-07-13T03:58:33;5.80;;;2.40;;
48122;SDS011;33907;47.426;18.906;2023-07-13T04:01:04;6.30;;;3.03;;
48122;SDS011;33907;47.426;18.906;2023-07-13T04:03:33;6.62;;;2.95;;
48122;SDS011;33907;47.426;18.906;2023-07-13T04:06:05;6.70;;;2.80;;
48122;SDS011;33907;47.426;18.906;2023-07-13T04:08:34;9.35;;;3.00;;
48122;SDS011;33907;47.426;18.906;2023-07-13T04:11:03;7.07;;;3.45;;
48122;SDS011;33907;47.426;18.906;2023-07-13T04:13:31;7.40;;;3.12;;
48122;SDS011;33907;47.426;18.906;2023-07-13T04:15:59;9.55;;;3.40;;
48122;SDS011;33907;47.426;18.906;2023-07-13T04:18:26;9.05;;;2.92;;
48122;SDS011;33907;47.426;18.906;2023-07-13T04:20:55;8.27;;;3.40;;
48122;SDS011;33907;47.426;18.906;2023-07-13T04:23:23;10.40;;;3.05;;
48122;SDS011;33907;47.426;18.906;2023-07-13T04:25:52;7.25;;;3.00;;
48122;SDS011;33907;47.426;18.906;2023-07-13T04:28:21;7.68;;;3.45;;
48122;SDS011;33907;47.426;18.906;2023-07-13T04:30:49;8.15;;;3.15;;
48122;SDS011;33907;47.426;18.906;2023-07-13T04:33:17;8.98;;;3.67;;
48122;SDS011;33907;47.426;18.906;2023-07-13T04:35:45;9.63;;;3.83;;
48122;SDS011;33907;47.426;18.906;2023-07-13T04:38:14;8.20;;;3.90;;
48122;SDS011;33907;47.426;18.906;2023-07-13T04:40:44;9.05;;;4.10;;
48122;SDS011;33907;47.426;18.906;2023-07-13T04:43:12;8.55;;;3.92;;
48122;SDS011;33907;47.426;18.906;2023-07-13T04:45:40;7.45;;;4.18;;
48122;SDS011;33907;47.426;18.906;2023-07-13T04:48:08;10.90;;;4.47;;
48122;SDS011;33907;47.426;18.906;2023-07-13T04:50:36;7.03;;;3.67;;
48122;SDS011;33907;47.426;18.906;2023-07-13T04:53:04;9.55;;;3.78;;
48122;SDS011;33907;47.426;18.906;2023-07-13T04:55:32;9.32;;;4.43;;
48122;SDS011;33907;47.426;18.906;2023-07-13T04:57:59;9.68;;;4.15;;
48122;SDS011;33907;47.426;18.906;2023-07-13T05:00:27;13.43;;;4.32;;
48122;SDS011;33907;47.426;18.906;2023-07-13T05:02:55;6.57;;;3.97;;
48122;SDS011;33907;47.426;18.906;2023-07-13T05:05:25;9.18;;;3.53;;
48122;SDS011;33907;47.426;18.906;2023-07-13T05:07:53;10.98;;;4.20;;
48122;SDS011;33907;47.426;18.906;2023-07-13T05:10:21;9.25;;;3.80;;
48122;SDS011;33907;47.426;18.906;2023-07-13T05:12:49;10.77;;;4.35;;
48122;SDS011;33907;47.426;18.906;2023-07-13T05:15:17;10.02;;;4.03;;
48122;SDS011;33907;47.426;18.906;2023-07-13T05:17:48;7.82;;;4.28;;
48122;SDS011;33907;47.426;18.906;2023-07-13T05:20:17;8.52;;;4.45;;
48122;SDS011;33907;47.426;18.906;2023-07-13T05:22:45;7.65;;;4.30;;
48122;SDS011;33907;47.426;18.906;2023-07-13T05:25:16;9.80;;;3.37;;
48122;SDS011;33907;47.426;18.906;2023-07-13T05:27:43;6.85;;;3.15;;
48122;SDS011;33907;47.426;18.906;2023-07-13T05:30:13;6.60;;;3.05;;
48122;SDS011;33907;47.426;18.906;2023-07-13T05:32:41;8.98;;;3.37;;
48122;SDS011;33907;47.426;18.906;2023-07-13T05:35:08;5.45;;;2.95;;
48122;SDS011;33907;47.426;18.906;2023-07-13T05:37:36;8.13;;;3.45;;
48122;SDS011;33907;47.426;18.906;2023-07-13T05:40:05;7.65;;;3.10;;
48122;SDS011;33907;47.426;18.906;2023-07-13T05:42:33;8.63;;;3.20;;
48122;SDS011;33907;47.426;18.906;2023-07-13T05:45:01;7.93;;;3.62;;
48122;SDS011;33907;47.426;18.906;2023-07-13T05:47:29;8.25;;;2.70;;
48122;SDS011;33907;47.426;18.906;2023-07-13T05:49:57;7.95;;;3.28;;
48122;SDS011;33907;47.426;18.906;2023-07-13T05:52:24;7.78;;;3.03;;
48122;SDS011;33907;47.426;18.906;2023-07-13T05:54:52;7.80;;;3.30;;
48122;SDS011;33907;47.426;18.906;2023-07-13T05:57:19;6.20;;;2.87;;
48122;SDS011;33907;47.426;18.906;2023-07-13T05:59:47;8.07;;;3.22;;
48122;SDS011;33907;47.426;18.906;2023-07-13T06:02:14;8.38;;;2.62;;
48122;SDS011;33907;47.426;18.906;2023-07-13T06:04:42;6.78;;;2.90;;
48122;SDS011;33907;47.426;18.906;2023-07-13T06:07:09;6.60;;;2.92;;
48122;SDS011;33907;47.426;18.906;2023-07-13T06:09:37;8.00;;;3.45;;
48122;SDS011;33907;47.426;18.906;2023-07-13T06:12:07;8.50;;;3.60;;
48122;SDS011;33907;47.426;18.906;2023-07-13T06:14:35;8.00;;;3.30;;
48122;SDS011;33907;47.426;18.906;2023-07-13T06:17:02;4.85;;;2.42;;
48122;SDS011;33907;47.426;18.906;2023-07-13T06:19:30;8.95;;;2.80;;
48122;SDS011;33907;47.426;18.906;2023-07-13T06:21:57;6.43;;;2.53;;
48122;SDS011;33907;47.426;18.906;2023-07-13T06:24:25;4.20;;;2.33;;
48122;SDS011;33907;47.426;18.906;2023-07-13T06:26:54;5.75;;;2.55;;
48122;SDS011;33907;47.426;18.906;2023-07-13T06:29:21;4.93;;;2.33;;
48122;SDS011;33907;47.426;18.906;2023-07-13T06:31:48;6.60;;;2.87;;
48122;SDS011;33907;47.426;18.906;2023-07-13T06:34:19;3.90;;;1.77;;
48122;SDS011;33907;47.426;18.906;2023-07-13T06:36:47;4.80;;;1.73;;
48122;SDS011;33907;47.426;18.906;2023-07-13T06:39:14;6.90;;;2.37;;
48122;SDS011;33907;47.426;18.906;2023-07-13T06:41:42;4.12;;;2.15;;
48122;SDS011;33907;47.426;18.906;2023-07-13T06:44:09;5.55;;;2.15;;
48122;SDS011;33907;47.426;18.906;2023-07-13T06:46:37;6.85;;;1.90;;
48122;SDS011;33907;47.426;18.906;2023-07-13T06:49:05;5.65;;;2.30;;
48122;SDS011;33907;47.426;18.906;2023-07-13T06:51:32;6.32;;;2.05;;
48122;SDS011;33907;47.426;18.906;2023-07-13T06:53:59;6.30;;;2.33;;
48122;SDS011;33907;47.426;18.906;2023-07-13T06:56:27;5.97;;;2.40;;
48122;SDS011;33907;47.426;18.906;2023-07-13T06:58:55;4.53;;;1.92;;
48122;SDS011;33907;47.426;18.906;2023-07-13T07:01:22;5.55;;;2.20;;
48122;SDS011;33907;47.426;18.906;2023-07-13T07:03:50;8.43;;;2.83;;
48122;SDS011;33907;47.426;18.906;2023-07-13T07:06:18;7.28;;;2.28;;
48122;SDS011;33907;47.426;18.906;2023-07-13T07:08:48;6.40;;;2.72;;
48122;SDS011;33907;47.426;18.906;2023-07-13T07:11:17;5.32;;;2.65;;
48122;SDS011;33907;47.426;18.906;2023-07-13T07:13:52;4.07;;;1.85;;
48122;SDS011;33907;47.426;18.906;2023-07-13T07:16:20;6.78;;;2.40;;
48122;SDS011;33907;47.426;18.906;2023-07-13T07:18:48;5.47;;;2.60;;
48122;SDS011;33907;47.426;18.906;2023-07-13T07:21:15;5.93;;;2.08;;
48122;SDS011;33907;47.426;18.906;2023-07-13T07:23:43;6.03;;;2.50;;
48122;SDS011;33907;47.426;18.906;2023-07-13T07:26:10;5.53;;;2.47;;
48122;SDS011;33907;47.426;18.906;2023-07-13T07:28:38;6.43;;;2.62;;
48122;SDS011;33907;47.426;18.906;2023-07-13T07:31:09;6.90;;;2.70;;
48122;SDS011;33907;47.426;18.906;2023-07-13T07:33:39;5.75;;;2.85;;
48122;SDS011;33907;47.426;18.906;2023-07-13T07:36:07;5.05;;;2.55;;
48122;SDS011;33907;47.426;18.906;2023-07-13T07:38:38;7.07;;;2.72;;
48122;SDS011;33907;47.426;18.906;2023-07-13T07:41:05;6.50;;;3.08;;
48122;SDS011;33907;47.426;18.906;2023-07-13T07:43:36;7.53;;;3.47;;
48122;SDS011;33907;47.426;18.906;2023-07-13T07:46:03;5.72;;;3.05;;
48122;SDS011;33907;47.426;18.906;2023-07-13T07:48:31;5.20;;;2.87;;
48122;SDS011;33907;47.426;18.906;2023-07-13T07:50:59;6.90;;;2.75;;
48122;SDS011;33907;47.426;18.906;2023-07-13T07:53:26;7.95;;;2.53;;
48122;SDS011;33907;47.426;18.906;2023-07-13T07:55:54;5.80;;;2.37;;
48122;SDS011;33907;47.426;18.906;2023-07-13T07:58:24;6.07;;;2.22;;
48122;SDS011;33907;47.426;18.906;2023-07-13T08:01:01;5.82;;;2.40;;
48122;SDS011;33907;47.426;18.906;2023-07-13T08:03:33;3.28;;;1.55;;
48122;SDS011;33907;47.426;18.906;2023-07-13T08:06:03;4.45;;;1.90;;
48122;SDS011;33907;47.426;18.906;2023-07-13T08:08:34;3.42;;;1.62;;
48122;SDS011;33907;47.426;18.906;2023-07-13T08:11:03;6.62;;;1.83;;
48122;SDS011;33907;47.426;18.906;2023-07-13T08:13:52;5.60;;;2.05;;
48122;SDS011;33907;47.426;18.906;2023-07-13T08:16:22;5.55;;;1.80;;
48122;SDS011;33907;47.426;18.906;2023-07-13T08:18:50;10.35;;;2.62;;
48122;SDS011;33907;47.426;18.906;2023-07-13T08:21:17;13.48;;;4.68;;
48122;SDS011;33907;47.426;18.906;2023-07-13T08:23:47;6.65;;;2.33;;
48122;SDS011;33907;47.426;18.906;2023-07-13T08:26:14;4.55;;;2.10;;
48122;SDS011;33907;47.426;18.906;2023-07-13T08:28:42;5.32;;;2.37;;
48122;SDS011;33907;47.426;18.906;2023-07-13T08:31:09;4.32;;;2.30;;
48122;SDS011;33907;47.426;18.906;2023-07-13T08:33:38;6.28;;;2.35;;
48122;SDS011;33907;47.426;18.906;2023-07-13T08:36:08;7.07;;;2.67;;
48122;SDS011;33907;47.426;18.906;2023-07-13T08:38:35;5.07;;;2.03;;
48122;SDS011;33907;47.426;18.906;2023-07-13T08:41:09;5.35;;;2.10;;
48122;SDS011;33907;47.426;18.906;2023-07-13T08:43:39;8.02;;;2.40;;
48122;SDS011;33907;47.426;18.906;2023-07-13T08:46:25;4.97;;;1.70;;
48122;SDS011;33907;47.426;18.906;2023-07-13T08:49:01;6.85;;;2.10;;
48122;SDS011;33907;47.426;18.906;2023-07-13T08:51:44;7.20;;;1.95;;
48122;SDS011;33907;47.426;18.906;2023-07-13T08:56:53;7.32;;;2.08;;
48122;SDS011;33907;47.426;18.906;2023-07-13T08:59:26;6.55;;;2.00;;
48122;SDS011;33907;47.426;18.906;2023-07-13T09:05:13;5.75;;;2.33;;
48122;SDS011;33907;47.426;18.906;2023-07-13T09:10:48;5.78;;;2.17;;
48122;SDS011;33907;47.426;18.906;2023-07-13T09:16:20;7.82;;;2.20;;
48122;SDS011;33907;47.426;18.906;2023-07-13T09:18:49;6.37;;;2.45;;
48122;SDS011;33907;47.426;18.906;2023-07-13T09:21:22;6.87;;;1.85;;
48122;SDS011;33907;47.426;18.906;2023-07-13T09:23:53;5.72;;;2.90;;
48122;SDS011;33907;47.426;18.906;2023-07-13T09:26:23;8.13;;;2.22;;
48122;SDS011;33907;47.426;18.906;2023-07-13T09:28:53;5.87;;;2.22;;
48122;SDS011;33907;47.426;18.906;2023-07-13T09:31:27;4.97;;;2.22;;
48122;SDS011;33907;47.426;18.906;2023-07-13T09:34:01;4.47;;;2.05;;
48122;SDS011;33907;47.426;18.906;2023-07-13T09:36:30;8.00;;;2.55;;
48122;SDS011;33907;47.426;18.906;2023-07-13T09:39:09;5.22;;;1.80;;
48122;SDS011;33907;47.426;18.906;2023-07-13T09:44:50;4.75;;;1.67;;
48122;SDS011;33907;47.426;18.906;2023-07-13T09:47:27;4.53;;;2.40;;
48122;SDS011;33907;47.426;18.906;2023-07-13T09:50:01;6.78;;;2.62;;
48122;SDS011;33907;47.426;18.906;2023-07-13T09:58:08;6.10;;;2.22;;
48122;SDS011;33907;47.426;18.906;2023-07-13T10:00:39;4.65;;;2.10;;
48122;SDS011;33907;47.426;18.906;2023-07-13T10:03:19;5.43;;;2.03;;
48122;SDS011;33907;47.426;18.906;2023-07-13T10:05:49;5.37;;;2.15;;
48122;SDS011;33907;47.426;18.906;2023-07-13T10:10:58;3.97;;;1.70;;
48122;SDS011;33907;47.426;18.906;2023-07-13T10:13:33;4.57;;;1.60;;
48122;SDS011;33907;47.426;18.906;2023-07-13T10:16:04;5.20;;;2.00;;
48122;SDS011;33907;47.426;18.906;2023-07-13T10:18:44;5.80;;;1.90;;
48122;SDS011;33907;47.426;18.906;2023-07-13T10:21:15;6.78;;;1.87;;
48122;SDS011;33907;47.426;18.906;2023-07-13T10:23:52;6.05;;;1.87;;
48122;SDS011;33907;47.426;18.906;2023-07-13T10:26:23;6.90;;;2.10;;
48122;SDS011;33907;47.426;18.906;2023-07-13T10:28:54;5.53;;;2.00;;
48122;SDS011;33907;47.426;18.906;2023-07-13T10:31:24;6.65;;;1.90;;
48122;SDS011;33907;47.426;18.906;2023-07-13T10:33:52;4.70;;;1.92;;
48122;SDS011;33907;47.426;18.906;2023-07-13T10:36:23;5.22;;;2.20;;
48122;SDS011;33907;47.426;18.906;2023-07-13T10:39:17;4.03;;;1.80;;
48122;SDS011;33907;47.426;18.906;2023-07-13T10:41:49;5.12;;;2.20;;
48122;SDS011;33907;47.426;18.906;2023-07-13T10:44:21;5.00;;;1.60;;
48122;SDS011;33907;47.426;18.906;2023-07-13T10:47:06;4.00;;;1.77;;
48122;SDS011;33907;47.426;18.906;2023-07-13T10:49:35;4.75;;;1.75;;
48122;SDS011;33907;47.426;18.906;2023-07-13T10:52:04;4.50;;;2.00;;
48122;SDS011;33907;47.426;18.906;2023-07-13T10:54:32;4.15;;;1.70;;
48122;SDS011;33907;47.426;18.906;2023-07-13T10:59:48;5.90;;;2.28;;
48122;SDS011;33907;47.426;18.906;2023-07-13T11:02:27;3.90;;;1.83;;
48122;SDS011;33907;47.426;18.906;2023-07-13T11:04:56;4.62;;;1.80;;
48122;SDS011;33907;47.426;18.906;2023-07-13T11:07:26;7.53;;;1.92;;
48122;SDS011;33907;47.426;18.906;2023-07-13T11:09:59;4.72;;;1.67;;
48122;SDS011;33907;47.426;18.906;2023-07-13T11:12:29;4.15;;;1.50;;
48122;SDS011;33907;47.426;18.906;2023-07-13T11:15:15;6.70;;;1.77;;
48122;SDS011;33907;47.426;18.906;2023-07-13T11:17:55;5.30;;;2.33;;
48122;SDS011;33907;47.426;18.906;2023-07-13T11:20:35;5.40;;;1.62;;
48122;SDS011;33907;47.426;18.906;2023-07-13T11:23:09;4.55;;;1.85;;
48122;SDS011;33907;47.426;18.906;2023-07-13T11:25:45;5.85;;;2.22;;
48122;SDS011;33907;47.426;18.906;2023-07-13T11:28:17;4.35;;;1.62;;
48122;SDS011;33907;47.426;18.906;2023-07-13T11:33:21;6.05;;;2.58;;
48122;SDS011;33907;47.426;18.906;2023-07-13T11:41:15;6.07;;;2.15;;
48122;SDS011;33907;47.426;18.906;2023-07-13T11:43:45;6.00;;;2.17;;
48122;SDS011;33907;47.426;18.906;2023-07-13T11:46:13;5.43;;;2.50;;
48122;SDS011;33907;47.426;18.906;2023-07-13T11:48:42;5.55;;;2.10;;
48122;SDS011;33907;47.426;18.906;2023-07-13T11:51:17;3.95;;;1.67;;
48122;SDS011;33907;47.426;18.906;2023-07-13T11:53:48;4.47;;;2.00;;
48122;SDS011;33907;47.426;18.906;2023-07-13T11:56:17;5.80;;;2.20;;
48122;SDS011;33907;47.426;18.906;2023-07-13T11:58:47;4.12;;;1.70;;
48122;SDS011;33907;47.426;18.906;2023-07-13T12:01:18;6.05;;;1.95;;
48122;SDS011;33907;47.426;18.906;2023-07-13T12:03:49;3.25;;;1.40;;
48122;SDS011;33907;47.426;18.906;2023-07-13T12:06:31;4.45;;;1.83;;
48122;SDS011;33907;47.426;18.906;2023-07-13T12:09:02;3.97;;;1.95;;
48122;SDS011;33907;47.426;18.906;2023-07-13T12:11:35;4.90;;;2.12;;
48122;SDS011;33907;47.426;18.906;2023-07-13T12:14:17;4.32;;;2.00;;
48122;SDS011;33907;47.426;18.906;2023-07-13T12:16:46;4.50;;;2.08;;
48122;SDS011;33907;47.426;18.906;2023-07-13T12:21:55;6.15;;;2.33;;
48122;SDS011;33907;47.426;18.906;2023-07-13T12:24:24;5.85;;;2.50;;
48122;SDS011;33907;47.426;18.906;2023-07-13T12:29:28;7.78;;;2.47;;
48122;SDS011;33907;47.426;18.906;2023-07-13T12:31:55;5.70;;;2.20;;
48122;SDS011;33907;47.426;18.906;2023-07-13T12:34:24;5.10;;;2.20;;
48122;SDS011;33907;47.426;18.906;2023-07-13T12:39:25;4.70;;;2.40;;
48122;SDS011;33907;47.426;18.906;2023-07-13T12:42:17;4.32;;;2.15;;
48122;SDS011;33907;47.426;18.906;2023-07-13T12:44:46;4.37;;;2.20;;
48122;SDS011;33907;47.426;18.906;2023-07-13T12:47:14;6.03;;;2.00;;
48122;SDS011;33907;47.426;18.906;2023-07-13T12:49:49;4.20;;;2.00;;
48122;SDS011;33907;47.426;18.906;2023-07-13T12:52:22;5.75;;;2.12;;
48122;SDS011;33907;47.426;18.906;2023-07-13T12:54:58;6.45;;;2.72;;
48122;SDS011;33907;47.426;18.906;2023-07-13T12:57:38;5.22;;;2.17;;
48122;SDS011;33907;47.426;18.906;2023-07-13T13:00:18;5.95;;;2.20;;
48122;SDS011;33907;47.426;18.906;2023-07-13T13:02:49;5.03;;;2.55;;
48122;SDS011;33907;47.426;18.906;2023-07-13T13:05:18;6.40;;;2.67;;
48122;SDS011;33907;47.426;18.906;2023-07-13T13:07:45;6.25;;;3.03;;
48122;SDS011;33907;47.426;18.906;2023-07-13T13:10:17;4.97;;;1.90;;
48122;SDS011;33907;47.426;18.906;2023-07-13T13:12:45;4.93;;;2.10;;
48122;SDS011;33907;47.426;18.906;2023-07-13T13:15:13;5.00;;;2.12;;
48122;SDS011;33907;47.426;18.906;2023-07-13T13:17:41;5.32;;;2.22;;
48122;SDS011;33907;47.426;18.906;2023-07-13T13:20:16;3.78;;;1.90;;
48122;SDS011;33907;47.426;18.906;2023-07-13T13:22:45;6.30;;;2.17;;
48122;SDS011;33907;47.426;18.906;2023-07-13T13:25:13;4.55;;;2.17;;
48122;SDS011;33907;47.426;18.906;2023-07-13T13:27:42;5.05;;;2.20;;
48122;SDS011;33907;47.426;18.906;2023-07-13T13:30:11;4.55;;;2.20;;
48122;SDS011;33907;47.426;18.906;2023-07-13T13:32:40;5.12;;;2.42;;
48122;SDS011;33907;47.426;18.906;2023-07-13T13:35:14;5.18;;;1.90;;
48122;SDS011;33907;47.426;18.906;2023-07-13T13:40:17;4.57;;;1.80;;
48122;SDS011;33907;47.426;18.906;2023-07-13T13:42:47;4.87;;;1.90;;
48122;SDS011;33907;47.426;18.906;2023-07-13T13:45:14;4.20;;;1.80;;
48122;SDS011;33907;47.426;18.906;2023-07-13T13:47:45;4.28;;;1.70;;
48122;SDS011;33907;47.426;18.906;2023-07-13T13:50:13;3.62;;;1.92;;
48122;SDS011;33907;47.426;18.906;2023-07-13T13:52:43;4.57;;;1.75;;
48122;SDS011;33907;47.426;18.906;2023-07-13T13:55:11;3.80;;;1.70;;
48122;SDS011;33907;47.426;18.906;2023-07-13T13:57:43;4.18;;;1.90;;
48122;SDS011;33907;47.426;18.906;2023-07-13T14:00:12;3.75;;;2.00;;
48122;SDS011;33907;47.426;18.906;2023-07-13T14:02:46;4.28;;;2.08;;
48122;SDS011;33907;47.426;18.906;2023-07-13T14:05:15;3.65;;;1.70;;
48122;SDS011;33907;47.426;18.906;2023-07-13T14:07:48;3.70;;;2.00;;
48122;SDS011;33907;47.426;18.906;2023-07-13T14:10:16;4.70;;;1.83;;
48122;SDS011;33907;47.426;18.906;2023-07-13T14:12:46;4.50;;;2.15;;
48122;SDS011;33907;47.426;18.906;2023-07-13T14:15:26;5.32;;;2.08;;
48122;SDS011;33907;47.426;18.906;2023-07-13T14:17:54;3.55;;;1.70;;
48122;SDS011;33907;47.426;18.906;2023-07-13T14:20:22;4.97;;;1.87;;
48122;SDS011;33907;47.426;18.906;2023-07-13T14:22:51;4.87;;;1.90;;
48122;SDS011;33907;47.426;18.906;2023-07-13T14:25:20;4.50;;;2.03;;
48122;SDS011;33907;47.426;18.906;2023-07-13T14:27:49;3.85;;;1.98;;
48122;SDS011;33907;47.426;18.906;2023-07-13T14:30:20;4.20;;;2.05;;
48122;SDS011;33907;47.426;18.906;2023-07-13T14:32:49;4.68;;;2.00;;
48122;SDS011;33907;47.426;18.906;2023-07-13T14:35:20;3.55;;;1.67;;
48122;SDS011;33907;47.426;18.906;2023-07-13T14:37:51;4.55;;;2.03;;
48122;SDS011;33907;47.426;18.906;2023-07-13T14:40:24;5.68;;;2.00;;
48122;SDS011;33907;47.426;18.906;2023-07-13T14:42:54;5.78;;;1.92;;
48122;SDS011;33907;47.426;18.906;2023-07-13T14:45:22;6.68;;;2.20;;
48122;SDS011;33907;47.426;18.906;2023-07-13T14:47:50;4.78;;;2.22;;
48122;SDS011;33907;47.426;18.906;2023-07-13T14:50:26;5.55;;;2.10;;
48122;SDS011;33907;47.426;18.906;2023-07-13T14:52:59;4.00;;;1.85;;
48122;SDS011;33907;47.426;18.906;2023-07-13T14:55:27;4.57;;;2.17;;
48122;SDS011;33907;47.426;18.906;2023-07-13T14:57:54;5.50;;;1.90;;
48122;SDS011;33907;47.426;18.906;2023-07-13T15:00:40;4.05;;;1.87;;
48122;SDS011;33907;47.426;18.906;2023-07-13T15:03:20;6.32;;;2.37;;
48122;SDS011;33907;47.426;18.906;2023-07-13T15:05:49;3.83;;;2.10;;
48122;SDS011;33907;47.426;18.906;2023-07-13T15:08:17;4.45;;;1.98;;
48122;SDS011;33907;47.426;18.906;2023-07-13T15:10:45;6.00;;;2.35;;
48122;SDS011;33907;47.426;18.906;2023-07-13T15:15:47;5.87;;;2.33;;
48122;SDS011;33907;47.426;18.906;2023-07-13T15:18:17;4.80;;;2.20;;
48122;SDS011;33907;47.426;18.906;2023-07-13T15:20:47;3.83;;;2.20;;
48122;SDS011;33907;47.426;18.906;2023-07-13T15:23:16;4.85;;;2.40;;
48122;SDS011;33907;47.426;18.906;2023-07-13T15:25:44;5.15;;;2.00;;
48122;SDS011;33907;47.426;18.906;2023-07-13T15:28:13;4.53;;;2.10;;
48122;SDS011;33907;47.426;18.906;2023-07-13T15:30:45;4.20;;;2.08;;
48122;SDS011;33907;47.426;18.906;2023-07-13T15:33:26;4.90;;;1.90;;
48122;SDS011;33907;47.426;18.906;2023-07-13T15:35:55;5.37;;;2.08;;
48122;SDS011;33907;47.426;18.906;2023-07-13T15:38:24;5.57;;;2.03;;